Time;durP1;ratioP1;P1;durP2;ratioP2;P2;SDS_P1;SDS_P2;PMS_P1;PMS_P2;Temp;Humidity;BMP_temperature;BMP_pressure;BME280_temperature;BME280_humidity;BME280_pressure;Samples;Min_cycle;Max_cycle;Signal;HPM_P1;HPM_P2
2023/03/18 00:01:26;;;;;;;33.50;15.50;;;;;;;;;;6244979;28;20037;-77
2023/03/18 00:04:26;;;;;;;36.70;15.23;;;;;;;;;;6243189;28;20862;-77
2023/03/18 00:07:27;;;;;;;39.97;15.27;;;;;;;;;;6247797;28;20104;-77
2023/03/18 00:10:28;;;;;;;29.33;14.77;;;;;;;;;;6242476;28;20024;-77
2023/03/18 00:13:28;;;;;;;33.57;16.07;;;;;;;;;;6243807;28;20033;-77
2023/03/18 00:16:28;;;;;;;42.57;17.37;;;;;;;;;;6243855;28;20029;-77
2023/03/18 00:19:28;;;;;;;32.65;15.13;;;;;;;;;;6243890;28;20361;-76
2023/03/18 00:22:28;;;;;;;35.43;17.80;;;;;;;;;;6243960;28;20051;-77
2023/03/18 00:25:30;;;;;;;45.03;16.33;;;;;;;;;;6248391;28;20040;-77
2023/03/18 00:28:31;;;;;;;37.58;18.17;;;;;;;;;;6244678;28;20024;-77
2023/03/18 00:31:31;;;;;;;30.67;15.33;;;;;;;;;;6245909;28;20018;-77
2023/03/18 00:34:32;;;;;;;36.97;15.90;;;;;;;;;;6248449;28;20043;-77
2023/03/18 00:37:34;;;;;;;42.30;17.10;;;;;;;;;;6245866;28;20467;-77
2023/03/18 00:40:52;;;;;;;38.10;16.50;;;;;;;;;;6243705;28;20018;-77
2023/03/18 00:43:53;;;;;;;38.47;17.40;;;;;;;;;;6245513;28;20025;-77
2023/03/18 00:46:53;;;;;;;28.50;13.70;;;;;;;;;;6247049;28;20021;-77
2023/03/18 00:49:53;;;;;;;30.40;15.10;;;;;;;;;;6233154;28;20376;-77
2023/03/18 00:52:54;;;;;;;24.47;13.10;;;;;;;;;;6248600;28;20041;-77
2023/03/18 00:55:54;;;;;;;35.63;14.63;;;;;;;;;;6242718;28;20065;-76
2023/03/18 00:58:54;;;;;;;25.27;11.53;;;;;;;;;;6251064;28;20459;-77
2023/03/18 01:01:54;;;;;;;26.50;13.32;;;;;;;;;;6256075;28;20016;-77
2023/03/18 01:04:55;;;;;;;27.93;12.50;;;;;;;;;;6246620;28;20092;-76
2023/03/18 01:07:56;;;;;;;29.55;13.80;;;;;;;;;;6251832;28;20399;-76
2023/03/18 01:10:57;;;;;;;29.27;14.70;;;;;;;;;;6247274;28;20013;-75
2023/03/18 01:13:58;;;;;;;34.43;16.47;;;;;;;;;;6247774;28;20025;-75
2023/03/18 01:16:58;;;;;;;36.70;16.55;;;;;;;;;;6247230;28;20068;-75
2023/03/18 01:19:59;;;;;;;27.90;14.93;;;;;;;;;;6248917;28;20071;-76
2023/03/18 01:23:00;;;;;;;26.67;12.93;;;;;;;;;;6246403;28;20022;-75
2023/03/18 01:26:01;;;;;;;35.85;14.65;;;;;;;;;;6245697;28;20013;-76
2023/03/18 01:29:01;;;;;;;32.50;14.50;;;;;;;;;;6248525;28;20028;-75
2023/03/18 01:32:02;;;;;;;31.73;14.40;;;;;;;;;;6252935;28;20018;-75
2023/03/18 01:35:04;;;;;;;32.07;14.00;;;;;;;;;;6247074;28;20010;-76
2023/03/18 01:38:04;;;;;;;31.40;14.35;;;;;;;;;;6251564;28;20024;-76
2023/03/18 01:41:05;;;;;;;30.43;13.43;;;;;;;;;;6244130;28;20022;-76
2023/03/18 01:44:12;;;;;;;36.70;15.73;;;;;;;;;;6241503;28;20044;-76
2023/03/18 01:47:15;;;;;;;35.85;16.23;;;;;;;;;;6248371;28;20028;-76
2023/03/18 01:50:18;;;;;;;36.40;16.35;;;;;;;;;;6228617;28;20028;-76
2023/03/18 01:53:19;;;;;;;30.25;14.25;;;;;;;;;;6239396;28;20125;-76
2023/03/18 01:56:19;;;;;;;29.67;14.30;;;;;;;;;;6250401;28;20495;-77
2023/03/18 01:59:21;;;;;;;33.30;15.13;;;;;;;;;;6247064;28;20338;-76
2023/03/18 02:02:22;;;;;;;27.67;13.38;;;;;;;;;;6227131;28;20476;-74
2023/03/18 02:05:24;;;;;;;33.63;16.07;;;;;;;;;;6248373;28;20018;-74
2023/03/18 02:08:25;;;;;;;31.63;14.82;;;;;;;;;;6245493;28;20034;-74
2023/03/18 02:11:25;;;;;;;36.23;14.57;;;;;;;;;;6245775;28;20022;-74
2023/03/18 02:14:26;;;;;;;29.10;14.03;;;;;;;;;;6246938;28;20022;-74
2023/03/18 02:17:30;;;;;;;33.37;15.10;;;;;;;;;;6239067;28;20018;-74
2023/03/18 02:20:49;;;;;;;28.60;13.27;;;;;;;;;;6250679;28;20029;-74
2023/03/18 02:23:49;;;;;;;30.67;12.90;;;;;;;;;;6249452;28;20583;-75
2023/03/18 02:26:53;;;;;;;35.37;15.27;;;;;;;;;;6243373;28;20029;-75
2023/03/18 02:29:59;;;;;;;37.65;15.10;;;;;;;;;;6252090;28;20025;-75
2023/03/18 02:32:59;;;;;;;31.05;15.38;;;;;;;;;;6225021;28;20041;-75
2023/03/18 02:36:04;;;;;;;32.43;13.67;;;;;;;;;;6245198;28;20105;-75
2023/03/18 02:39:05;;;;;;;32.50;14.95;;;;;;;;;;6241185;28;20018;-75
2023/03/18 02:42:05;;;;;;;33.07;15.10;;;;;;;;;;6243412;28;20032;-75
2023/03/18 02:45:08;;;;;;;29.57;14.63;;;;;;;;;;6244004;28;20021;-75
2023/03/18 02:48:10;;;;;;;33.03;13.95;;;;;;;;;;6241025;28;20539;-75
2023/03/18 02:51:11;;;;;;;34.10;15.38;;;;;;;;;;6243780;28;20025;-75
2023/03/18 02:54:13;;;;;;;29.80;13.45;;;;;;;;;;6246000;28;20125;-76
2023/03/18 02:57:14;;;;;;;;;;;;;;;;;;6246556;28;20102;-76
2023/03/18 03:00:15;;;;;;;32.63;15.02;;;;;;;;;;6238689;28;19909;-76
2023/03/18 03:03:15;;;;;;;30.13;13.40;;;;;;;;;;6254873;28;20043;-75
2023/03/18 03:06:16;;;;;;;29.73;14.43;;;;;;;;;;6241632;28;20443;-75
2023/03/18 03:09:16;;;;;;;32.03;13.97;;;;;;;;;;6243600;28;20036;-75
2023/03/18 03:12:17;;;;;;;34.70;15.43;;;;;;;;;;6243077;28;20060;-75
2023/03/18 03:15:18;;;;;;;23.53;10.43;;;;;;;;;;6242783;28;20475;-75
2023/03/18 03:18:19;;;;;;;33.53;16.57;;;;;;;;;;6245483;28;20396;-75
2023/03/18 03:21:19;;;;;;;33.25;15.27;;;;;;;;;;6243903;28;20025;-75
2023/03/18 03:24:21;;;;;;;33.93;14.83;;;;;;;;;;6232355;28;20026;-76
2023/03/18 03:27:21;;;;;;;29.80;13.90;;;;;;;;;;6245768;28;20021;-76
2023/03/18 03:30:22;;;;;;;34.13;15.97;;;;;;;;;;6244871;28;20440;-76
2023/03/18 03:33:22;;;;;;;40.60;16.70;;;;;;;;;;6245469;28;20395;-76
2023/03/18 03:36:23;;;;;;;29.17;13.83;;;;;;;;;;6234748;28;20123;-76
2023/03/18 03:39:23;;;;;;;35.57;16.30;;;;;;;;;;6242446;28;20025;-77
2023/03/18 03:42:23;;;;;;;38.33;18.52;;;;;;;;;;6239598;28;20017;-76
2023/03/18 03:45:24;;;;;;;33.90;17.77;;;;;;;;;;6244560;28;20553;-77
2023/03/18 03:48:24;;;;;;;38.43;14.37;;;;;;;;;;6244345;28;20029;-77
2023/03/18 03:51:26;;;;;;;30.60;12.57;;;;;;;;;;6241393;28;20032;-78
2023/03/18 03:54:27;;;;;;;30.42;12.98;;;;;;;;;;6226855;28;20053;-78
2023/03/18 03:57:27;;;;;;;27.70;13.40;;;;;;;;;;6244742;28;20033;-78
2023/03/18 04:00:27;;;;;;;31.70;13.20;;;;;;;;;;6244687;28;20139;-78
2023/03/18 04:03:28;;;;;;;36.10;13.67;;;;;;;;;;6241968;28;20017;-78
2023/03/18 04:06:29;;;;;;;33.10;13.10;;;;;;;;;;6244909;28;20026;-78
2023/03/18 04:09:29;;;;;;;32.27;17.27;;;;;;;;;;6240980;28;20128;-78
2023/03/18 04:12:29;;;;;;;29.07;13.13;;;;;;;;;;6235110;28;20522;-79
2023/03/18 04:15:29;;;;;;;36.37;16.90;;;;;;;;;;6243924;28;20021;-78
2023/03/18 04:18:30;;;;;;;31.97;15.00;;;;;;;;;;6236971;28;20036;-78
2023/03/18 04:21:32;;;;;;;38.17;18.10;;;;;;;;;;6229328;28;20037;-78
2023/03/18 04:24:32;;;;;;;33.58;15.85;;;;;;;;;;6249706;28;20014;-78
2023/03/18 04:27:32;;;;;;;30.83;14.33;;;;;;;;;;6249686;28;20052;-77
2023/03/18 04:30:33;;;;;;;27.77;15.60;;;;;;;;;;6224657;28;20025;-78
2023/03/18 04:33:33;;;;;;;34.23;15.17;;;;;;;;;;6231971;28;20021;-77
2023/03/18 04:36:33;;;;;;;38.67;15.17;;;;;;;;;;6234631;28;20346;-78
2023/03/18 04:39:33;;;;;;;32.33;12.87;;;;;;;;;;6240675;28;20021;-79
2023/03/18 04:42:33;;;;;;;28.23;13.67;;;;;;;;;;6221581;28;20014;-78
2023/03/18 04:45:34;;;;;;;36.30;14.40;;;;;;;;;;6238910;28;20018;-79
2023/03/18 04:48:34;;;;;;;36.03;13.90;;;;;;;;;;6232394;28;20102;-79
2023/03/18 04:51:35;;;;;;;29.17;13.83;;;;;;;;;;6233264;28;20037;-80
2023/03/18 04:54:36;;;;;;;32.83;13.93;;;;;;;;;;6233183;28;20050;-81
2023/03/18 04:57:37;;;;;;;28.47;14.17;;;;;;;;;;6227494;28;20519;-81
2023/03/18 05:00:37;;;;;;;27.05;14.85;;;;;;;;;;6237929;28;20028;-82
2023/03/18 05:03:38;;;;;;;27.93;16.10;;;;;;;;;;6229185;28;20045;-82
2023/03/18 05:06:38;;;;;;;34.50;15.97;;;;;;;;;;6239741;28;20021;-82
2023/03/18 05:09:38;;;;;;;28.70;13.83;;;;;;;;;;6248944;28;20260;-83
2023/03/18 05:12:39;;;;;;;38.10;14.27;;;;;;;;;;6242197;28;20029;-82
2023/03/18 05:15:40;;;;;;;31.40;14.67;;;;;;;;;;6238675;28;20021;-84
2023/03/18 05:18:40;;;;;;;49.80;21.13;;;;;;;;;;6241867;28;20063;-84
2023/03/18 05:21:40;;;;;;;34.33;16.37;;;;;;;;;;6235851;28;20013;-82
2023/03/18 05:24:42;;;;;;;25.87;13.73;;;;;;;;;;6230236;28;20049;-84
2023/03/18 05:27:42;;;;;;;35.20;14.95;;;;;;;;;;6259831;28;20037;-84
2023/03/18 05:30:42;;;;;;;28.13;12.50;;;;;;;;;;6247349;28;20017;-84
2023/03/18 05:33:42;;;;;;;30.63;14.40;;;;;;;;;;6248559;28;20373;-84
2023/03/18 05:36:43;;;;;;;29.97;15.00;;;;;;;;;;6237810;28;20028;-83
2023/03/18 05:39:44;;;;;;;32.37;16.13;;;;;;;;;;6238352;28;20448;-82
2023/03/18 05:42:44;;;;;;;29.15;14.35;;;;;;;;;;6229053;28;20029;-80
2023/03/18 05:45:44;;;;;;;38.03;23.20;;;;;;;;;;6232359;28;20017;-78
2023/03/18 05:48:44;;;;;;;43.90;21.07;;;;;;;;;;6236243;28;20456;-78
2023/03/18 05:51:45;;;;;;;33.57;17.57;;;;;;;;;;6237376;28;20021;-77
2023/03/18 05:54:45;;;;;;;31.47;16.47;;;;;;;;;;6240870;28;20120;-77
2023/03/18 05:57:47;;;;;;;32.42;16.77;;;;;;;;;;6240506;28;20496;-79
2023/03/18 06:00:49;;;;;;;33.78;17.75;;;;;;;;;;6217854;28;20475;-78
2023/03/18 06:03:49;;;;;;;;;;;;;;;;;;6233750;28;20017;-77
2023/03/18 06:06:50;;;;;;;36.70;18.30;;;;;;;;;;6236951;28;19959;-77
2023/03/18 06:09:51;;;;;;;37.43;18.67;;;;;;;;;;6238236;28;20025;-76
2023/03/18 06:12:51;;;;;;;29.97;18.33;;;;;;;;;;6237187;28;20075;-76
2023/03/18 06:15:55;;;;;;;33.60;17.57;;;;;;;;;;6233044;28;20411;-75
2023/03/18 06:18:56;;;;;;;30.60;16.92;;;;;;;;;;6234620;28;20549;-74
2023/03/18 06:21:57;;;;;;;30.70;16.60;;;;;;;;;;6242601;28;20021;-74
2023/03/18 06:24:57;;;;;;;26.43;14.90;;;;;;;;;;6242541;28;20013;-73
2023/03/18 06:27:58;;;;;;;29.57;14.13;;;;;;;;;;6239690;28;20036;-73
2023/03/18 06:30:58;;;;;;;25.60;14.05;;;;;;;;;;6245042;28;20071;-73
2023/03/18 06:33:58;;;;;;;22.73;13.20;;;;;;;;;;6246059;28;20029;-73
2023/03/18 06:36:59;;;;;;;30.83;13.10;;;;;;;;;;6234740;28;20464;-73
2023/03/18 06:39:59;;;;;;;24.67;14.53;;;;;;;;;;6241008;28;20393;-73
2023/03/18 06:42:59;;;;;;;23.13;12.17;;;;;;;;;;6244011;28;20511;-73
2023/03/18 06:45:59;;;;;;;23.20;12.27;;;;;;;;;;6235217;28;20025;-73
2023/03/18 06:49:00;;;;;;;29.40;15.33;;;;;;;;;;6242098;28;20032;-73
2023/03/18 06:52:01;;;;;;;31.83;15.40;;;;;;;;;;6218262;28;20472;-72
2023/03/18 06:55:01;;;;;;;28.33;14.70;;;;;;;;;;6228479;28;20061;-72
2023/03/18 06:58:01;;;;;;;27.10;14.60;;;;;;;;;;6233964;28;20148;-72
2023/03/18 07:01:02;;;;;;;33.77;17.43;;;;;;;;;;6230571;28;20013;-73
2023/03/18 07:04:05;;;;;;;42.23;19.47;;;;;;;;;;6235693;28;20025;-73
2023/03/18 07:07:06;;;;;;;31.42;18.33;;;;;;;;;;6234317;28;20279;-73
2023/03/18 07:10:07;;;;;;;34.33;18.27;;;;;;;;;;6238171;28;20056;-73
2023/03/18 07:13:08;;;;;;;37.00;19.45;;;;;;;;;;6218943;28;20025;-73
2023/03/18 07:16:10;;;;;;;39.15;20.05;;;;;;;;;;6236656;28;20117;-73
2023/03/18 07:19:10;;;;;;;34.92;18.48;;;;;;;;;;6240277;28;20018;-73
2023/03/18 07:22:11;;;;;;;37.17;19.53;;;;;;;;;;6239541;28;20021;-73
2023/03/18 07:25:12;;;;;;;35.57;17.40;;;;;;;;;;6244739;28;20024;-74
2023/03/18 07:28:12;;;;;;;30.67;17.83;;;;;;;;;;6239024;28;20060;-73
2023/03/18 07:31:12;;;;;;;29.50;15.50;;;;;;;;;;6242764;28;20492;-72
2023/03/18 07:34:13;;;;;;;33.97;15.87;;;;;;;;;;6231599;28;20041;-77
2023/03/18 07:37:14;;;;;;;28.48;14.50;;;;;;;;;;6234025;28;20075;-78
2023/03/18 07:40:15;;;;;;;21.83;12.40;;;;;;;;;;6242621;28;20013;-78
2023/03/18 07:43:16;;;;;;;24.98;12.98;;;;;;;;;;6241974;28;20053;-75
2023/03/18 07:46:16;;;;;;;25.10;14.27;;;;;;;;;;6242006;28;20036;-77
2023/03/18 07:49:16;;;;;;;23.88;12.15;;;;;;;;;;6212213;28;20029;-77
2023/03/18 07:52:17;;;;;;;22.23;13.90;;;;;;;;;;6241174;28;20373;-77
2023/03/18 07:55:18;;;;;;;24.27;12.70;;;;;;;;;;6233076;28;20123;-77
2023/03/18 07:58:19;;;;;;;25.75;14.10;;;;;;;;;;6213884;28;20033;-77
2023/03/18 08:01:20;;;;;;;26.02;13.52;;;;;;;;;;6237708;28;20052;-78
2023/03/18 08:04:20;;;;;;;22.77;13.13;;;;;;;;;;6221725;28;20084;-77
2023/03/18 08:07:21;;;;;;;41.53;22.10;;;;;;;;;;6225820;28;20048;-77
2023/03/18 08:10:22;;;;;;;;;;;;;;;;;;6240126;28;20051;-77
2023/03/18 08:13:24;;;;;;;28.05;14.25;;;;;;;;;;6239076;28;19916;-77
2023/03/18 08:16:24;;;;;;;23.67;12.82;;;;;;;;;;6237627;28;20036;-78
2023/03/18 08:19:25;;;;;;;26.73;14.00;;;;;;;;;;6216372;28;20483;-77
2023/03/18 08:22:25;;;;;;;25.47;13.70;;;;;;;;;;6235950;28;20006;-78
2023/03/18 08:25:25;;;;;;;21.23;11.50;;;;;;;;;;6237347;28;20092;-78
2023/03/18 08:28:26;;;;;;;19.10;11.30;;;;;;;;;;6235003;28;20036;-78
2023/03/18 08:31:26;;;;;;;27.53;12.77;;;;;;;;;;6231863;28;20048;-77
2023/03/18 08:34:27;;;;;;;29.77;14.27;;;;;;;;;;6239455;28;20024;-78
2023/03/18 08:37:27;;;;;;;22.60;13.00;;;;;;;;;;6240174;28;20053;-78
2023/03/18 08:40:27;;;;;;;25.97;12.13;;;;;;;;;;6236334;28;20483;-78
2023/03/18 08:43:27;;;;;;;19.63;11.20;;;;;;;;;;6234941;28;20068;-78
2023/03/18 08:46:28;;;;;;;18.55;10.32;;;;;;;;;;6240068;28;20060;-77
2023/03/18 08:49:28;;;;;;;17.80;10.53;;;;;;;;;;6237718;28;20430;-78
2023/03/18 08:52:29;;;;;;;21.77;11.83;;;;;;;;;;6241760;28;20021;-78
2023/03/18 08:55:31;;;;;;;19.77;11.00;;;;;;;;;;6233086;28;20033;-77
2023/03/18 08:58:33;;;;;;;17.90;10.30;;;;;;;;;;6236307;28;20332;-77
2023/03/18 09:01:35;;;;;;;16.00;8.52;;;;;;;;;;6240944;28;20430;-77
2023/03/18 09:04:35;;;;;;;19.17;9.85;;;;;;;;;;6239607;28;20014;-77
2023/03/18 09:07:37;;;;;;;18.60;10.50;;;;;;;;;;6243534;28;20218;-77
2023/03/18 09:10:37;;;;;;;18.33;10.45;;;;;;;;;;6245904;28;20152;-78
2023/03/18 09:13:37;;;;;;;14.07;7.73;;;;;;;;;;6245818;28;20022;-78
2023/03/18 09:16:38;;;;;;;18.17;10.17;;;;;;;;;;6244080;28;20029;-77
2023/03/18 09:19:38;;;;;;;18.10;9.87;;;;;;;;;;6247408;28;20022;-77
2023/03/18 09:22:41;;;;;;;15.37;8.90;;;;;;;;;;6240907;28;20052;-78
2023/03/18 09:25:41;;;;;;;21.08;12.88;;;;;;;;;;6240960;28;20041;-77
2023/03/18 09:28:41;;;;;;;15.37;8.13;;;;;;;;;;6247694;28;20037;-77
2023/03/18 09:31:41;;;;;;;18.07;9.20;;;;;;;;;;6243809;28;20045;-77
2023/03/18 09:34:43;;;;;;;17.93;10.33;;;;;;;;;;6241688;28;20045;-77
2023/03/18 09:37:43;;;;;;;14.63;8.57;;;;;;;;;;6244996;28;20108;-77
2023/03/18 09:41:02;;;;;;;14.83;8.20;;;;;;;;;;6245084;28;20013;-78
2023/03/18 09:44:02;;;;;;;17.00;8.85;;;;;;;;;;6237950;28;20032;-77
2023/03/18 09:47:10;;;;;;;18.58;9.52;;;;;;;;;;6243579;28;20029;-76
2023/03/18 09:50:13;;;;;;;20.20;9.40;;;;;;;;;;6247850;28;20025;-77
2023/03/18 09:53:22;;;;;;;17.17;8.98;;;;;;;;;;6246735;28;20068;-76
2023/03/18 09:56:25;;;;;;;16.98;10.93;;;;;;;;;;6243396;28;20041;-76
2023/03/18 09:59:31;;;;;;;13.15;8.00;;;;;;;;;;6237299;28;20042;-76
2023/03/18 10:02:38;;;;;;;16.40;8.85;;;;;;;;;;6242708;28;20013;-77
2023/03/18 10:05:42;;;;;;;16.15;8.23;;;;;;;;;;6246676;28;20476;-77
2023/03/18 10:08:49;;;;;;;18.92;10.30;;;;;;;;;;6246566;28;20038;-76
2023/03/18 10:11:51;;;;;;;19.88;10.73;;;;;;;;;;6244601;28;20025;-76
2023/03/18 10:15:00;;;;;;;21.30;11.80;;;;;;;;;;6242595;28;20021;-78
2023/03/18 10:18:12;;;;;;;16.65;8.88;;;;;;;;;;6237833;28;20072;-76
2023/03/18 10:21:15;;;;;;;13.85;6.85;;;;;;;;;;6232175;28;20026;-76
2023/03/18 10:24:25;;;;;;;13.75;8.10;;;;;;;;;;6242706;28;20462;-76
2023/03/18 10:27:36;;;;;;;16.30;8.45;;;;;;;;;;6240598;28;20535;-77
2023/03/18 10:30:51;;;;;;;14.80;7.63;;;;;;;;;;6245045;28;20036;-77
2023/03/18 10:34:00;;;;;;;14.23;6.97;;;;;;;;;;6244347;28;20352;-77
2023/03/18 10:37:04;;;;;;;15.40;7.88;;;;;;;;;;6243531;28;20044;-77
2023/03/18 10:40:15;;;;;;;16.15;8.55;;;;;;;;;;6244187;28;20468;-77
2023/03/18 10:43:18;;;;;;;17.58;10.43;;;;;;;;;;6226081;28;20029;-76
2023/03/18 10:46:20;;;;;;;17.45;7.80;;;;;;;;;;6238319;28;20026;-76
2023/03/18 10:49:24;;;;;;;13.35;6.60;;;;;;;;;;6240353;28;20427;-76
2023/03/18 10:52:25;;;;;;;12.18;6.85;;;;;;;;;;6241400;28;20030;-78
2023/03/18 10:55:34;;;;;;;11.95;5.72;;;;;;;;;;6242846;28;20115;-77
2023/03/18 10:58:36;;;;;;;20.27;10.75;;;;;;;;;;6237889;28;20045;-77
2023/03/18 11:01:37;;;;;;;11.75;5.97;;;;;;;;;;6241941;28;20032;-77
2023/03/18 11:04:41;;;;;;;10.60;6.40;;;;;;;;;;6237202;28;20021;-78
2023/03/18 11:08:14;;;;;;;12.30;6.38;;;;;;;;;;6230073;28;20845;-77
2023/03/18 11:11:24;;;;;;;14.20;6.80;;;;;;;;;;6145349;28;20563;-77
2023/03/18 11:14:30;;;;;;;14.18;8.02;;;;;;;;;;6202056;28;20056;-77
2023/03/18 11:17:32;;;;;;;10.23;5.38;;;;;;;;;;6237065;28;20029;-76
2023/03/18 11:20:42;;;;;;;13.10;6.30;;;;;;;;;;6240544;28;20096;-77
2023/03/18 11:23:55;;;;;;;11.70;5.90;;;;;;;;;;6244411;28;20017;-78
2023/03/18 11:26:55;;;;;;;9.35;5.10;;;;;;;;;;6244958;28;20471;-77
2023/03/18 11:29:58;;;;;;;12.13;6.15;;;;;;;;;;6244043;28;20040;-77
2023/03/18 11:33:03;;;;;;;12.38;6.32;;;;;;;;;;6243307;28;20029;-79
2023/03/18 11:36:04;;;;;;;12.18;5.90;;;;;;;;;;6237561;28;20013;-78
2023/03/18 11:39:05;;;;;;;14.25;7.03;;;;;;;;;;6231803;28;20018;-78
2023/03/18 11:42:16;;;;;;;13.10;7.40;;;;;;;;;;6239564;28;20040;-78
2023/03/18 11:45:30;;;;;;;11.68;5.97;;;;;;;;;;6236165;28;20117;-79
2023/03/18 11:48:35;;;;;;;14.38;6.40;;;;;;;;;;6239770;28;20383;-79
2023/03/18 11:51:44;;;;;;;11.55;5.85;;;;;;;;;;6241864;28;20045;-79
2023/03/18 11:54:45;;;;;;;11.18;5.30;;;;;;;;;;6239484;28;20132;-78
2023/03/18 11:57:56;;;;;;;11.77;5.13;;;;;;;;;;6243782;28;20030;-79
2023/03/18 12:01:04;;;;;;;14.27;6.15;;;;;;;;;;6234575;28;20018;-79
2023/03/18 12:04:07;;;;;;;8.90;6.03;;;;;;;;;;6241058;28;20018;-76
2023/03/18 12:07:29;;;;;;;10.23;4.63;;;;;;;;;;6239096;28;20021;-77
2023/03/18 12:10:35;;;;;;;10.02;5.97;;;;;;;;;;6237293;28;20083;-79
2023/03/18 12:13:35;;;;;;;8.82;5.03;;;;;;;;;;6230256;28;20045;-78
2023/03/18 12:16:40;;;;;;;13.93;5.10;;;;;;;;;;6224802;28;20025;-78
2023/03/18 12:19:47;;;;;;;12.57;5.00;;;;;;;;;;6243765;28;20017;-78
2023/03/18 12:23:00;;;;;;;12.73;5.28;;;;;;;;;;6238795;28;20022;-77
2023/03/18 12:26:12;;;;;;;13.18;5.40;;;;;;;;;;6235978;28;20083;-77
2023/03/18 12:29:32;;;;;;;12.20;5.55;;;;;;;;;;6236634;28;20372;-77
2023/03/18 12:32:53;;;;;;;9.32;5.43;;;;;;;;;;6240229;28;20024;-77
2023/03/18 12:35:53;;;;;;;10.15;5.30;;;;;;;;;;6237740;28;20048;-78
2023/03/18 12:38:53;;;;;;;13.18;5.30;;;;;;;;;;6232734;28;20022;-78
2023/03/18 12:42:02;;;;;;;12.97;6.07;;;;;;;;;;6244007;28;20028;-78
2023/03/18 12:45:11;;;;;;;10.85;4.80;;;;;;;;;;6246355;28;20009;-77
2023/03/18 12:48:21;;;;;;;11.07;5.93;;;;;;;;;;6236871;28;20072;-78
2023/03/18 12:51:24;;;;;;;11.43;4.60;;;;;;;;;;6245686;28;20040;-77
2023/03/18 12:54:25;;;;;;;11.82;5.00;;;;;;;;;;6235039;28;20058;-78
2023/03/18 12:57:26;;;;;;;8.48;4.82;;;;;;;;;;6245951;28;20040;-77
2023/03/18 13:00:34;;;;;;;11.60;5.20;;;;;;;;;;6238545;28;20433;-77
2023/03/18 13:03:38;;;;;;;12.07;7.15;;;;;;;;;;6234178;28;20474;-77
2023/03/18 13:06:50;;;;;;;11.93;6.10;;;;;;;;;;6241553;28;20055;-77
2023/03/18 13:09:57;;;;;;;8.57;5.15;;;;;;;;;;6240439;28;20034;-78
2023/03/18 13:12:59;;;;;;;14.27;6.28;;;;;;;;;;6239979;28;20028;-77
2023/03/18 13:16:02;;;;;;;9.40;5.50;;;;;;;;;;6233408;28;20382;-77
2023/03/18 13:19:02;;;;;;;13.75;6.70;;;;;;;;;;6225645;28;20021;-78
2023/03/18 13:22:11;;;;;;;11.77;5.87;;;;;;;;;;6236256;28;20464;-77
2023/03/18 13:25:17;;;;;;;10.38;5.03;;;;;;;;;;6242040;28;20380;-79
2023/03/18 13:28:36;;;;;;;14.57;6.60;;;;;;;;;;6227463;28;20034;-76
2023/03/18 13:31:37;;;;;;;11.07;5.05;;;;;;;;;;6238372;28;20025;-78
2023/03/18 13:34:37;;;;;;;12.40;6.80;;;;;;;;;;6238029;28;20048;-77
2023/03/18 13:37:56;;;;;;;34.05;15.63;;;;;;;;;;6235921;28;20064;-78
2023/03/18 13:40:59;;;;;;;10.60;6.13;;;;;;;;;;6233207;28;20025;-77
2023/03/18 13:44:03;;;;;;;13.43;6.15;;;;;;;;;;6240586;28;20046;-77
2023/03/18 13:47:06;;;;;;;11.35;6.00;;;;;;;;;;6243607;28;20025;-77
2023/03/18 13:50:24;;;;;;;11.95;6.50;;;;;;;;;;6246294;28;20057;-77
2023/03/18 13:53:30;;;;;;;12.80;6.40;;;;;;;;;;6239776;28;20037;-77
2023/03/18 13:56:37;;;;;;;19.70;8.05;;;;;;;;;;6238952;28;20144;-77
2023/03/18 13:59:38;;;;;;;11.40;6.00;;;;;;;;;;6248287;28;20569;-78
2023/03/18 14:02:38;;;;;;;14.60;5.67;;;;;;;;;;6235963;28;20006;-77
2023/03/18 14:05:40;;;;;;;11.30;5.95;;;;;;;;;;6242221;28;20025;-77
2023/03/18 14:08:41;;;;;;;10.88;7.10;;;;;;;;;;6250563;28;20049;-77
2023/03/18 14:11:46;;;;;;;12.05;7.38;;;;;;;;;;6234747;28;20040;-77
2023/03/18 14:14:50;;;;;;;15.27;8.00;;;;;;;;;;6236008;28;20477;-77
2023/03/18 14:17:57;;;;;;;12.70;7.40;;;;;;;;;;6245593;28;20029;-77
2023/03/18 14:21:01;;;;;;;14.38;7.50;;;;;;;;;;6247128;28;20025;-78
2023/03/18 14:24:12;;;;;;;12.63;7.18;;;;;;;;;;6234638;28;20049;-76
2023/03/18 14:27:17;;;;;;;14.95;7.18;;;;;;;;;;6246393;28;20033;-77
2023/03/18 14:30:26;;;;;;;11.52;7.20;;;;;;;;;;6222956;28;20079;-77
2023/03/18 14:33:30;;;;;;;14.50;7.07;;;;;;;;;;6231778;28;20475;-76
2023/03/18 14:36:49;;;;;;;13.65;7.15;;;;;;;;;;6248168;28;20435;-78
2023/03/18 14:39:51;;;;;;;12.95;7.10;;;;;;;;;;6244012;28;20039;-78
2023/03/18 14:42:57;;;;;;;12.48;6.50;;;;;;;;;;6239414;28;20492;-77
2023/03/18 14:45:58;;;;;;;12.75;6.85;;;;;;;;;;6229109;28;20022;-77
2023/03/18 14:48:59;;;;;;;15.68;7.40;;;;;;;;;;6239888;28;20021;-78
2023/03/18 14:51:59;;;;;;;13.83;7.87;;;;;;;;;;6243830;28;20025;-78
2023/03/18 14:55:02;;;;;;;14.67;7.10;;;;;;;;;;6243121;28;20029;-78
2023/03/18 14:58:02;;;;;;;13.07;5.93;;;;;;;;;;6241021;28;20543;-78
2023/03/18 15:01:08;;;;;;;16.63;7.80;;;;;;;;;;6244754;28;20088;-78
2023/03/18 15:04:12;;;;;;;14.32;6.95;;;;;;;;;;6241324;28;20013;-78
2023/03/18 15:07:14;;;;;;;20.02;7.82;;;;;;;;;;6243793;28;20025;-77
2023/03/18 15:10:18;;;;;;;16.88;7.68;;;;;;;;;;6239064;28;20456;-78
2023/03/18 15:13:21;;;;;;;14.27;6.35;;;;;;;;;;6239363;28;20032;-77
2023/03/18 15:16:22;;;;;;;13.32;7.10;;;;;;;;;;6237951;28;20361;-78
2023/03/18 15:19:25;;;;;;;14.07;6.80;;;;;;;;;;6238370;28;20064;-77
2023/03/18 15:22:28;;;;;;;13.27;7.28;;;;;;;;;;6236319;28;20277;-77
2023/03/18 15:25:28;;;;;;;13.20;6.32;;;;;;;;;;6238916;28;20014;-77
2023/03/18 15:28:28;;;;;;;14.13;7.00;;;;;;;;;;6245258;28;20036;-78
2023/03/18 15:31:40;;;;;;;19.93;8.53;;;;;;;;;;6239825;28;20017;-78
2023/03/18 15:34:41;;;;;;;;;;;;;;;;;;6243109;28;20019;-76
2023/03/18 15:37:42;;;;;;;13.07;6.47;;;;;;;;;;6236760;28;19917;-78
2023/03/18 15:40:42;;;;;;;;;;;;;;;;;;6240540;28;20068;-78
2023/03/18 15:43:44;;;;;;;18.15;10.60;;;;;;;;;;6220817;28;19909;-77
2023/03/18 15:46:44;;;;;;;;;;;;;;;;;;6245201;28;20029;-77
2023/03/18 15:49:56;;;;;;;17.65;10.05;;;;;;;;;;6242475;28;20006;-77
2023/03/18 15:53:17;;;;;;;22.55;10.40;;;;;;;;;;6244872;28;20152;-79
2023/03/18 15:56:29;;;;;;;25.80;11.18;;;;;;;;;;6242539;28;20033;-77
2023/03/18 15:59:31;;;;;;;25.50;12.65;;;;;;;;;;6241053;28;20032;-77
2023/03/18 16:02:32;;;;;;;27.33;13.40;;;;;;;;;;6242854;28;20022;-77
2023/03/18 16:05:32;;;;;;;25.52;12.75;;;;;;;;;;6244254;28;20717;-77
2023/03/18 16:08:33;;;;;;;24.17;12.60;;;;;;;;;;6246751;28;20057;-77
2023/03/18 16:11:35;;;;;;;40.83;21.27;;;;;;;;;;6245080;28;20451;-78
2023/03/18 16:14:41;;;;;;;60.88;27.83;;;;;;;;;;6237972;28;20079;-78
2023/03/18 16:17:41;;;;;;;59.53;27.45;;;;;;;;;;6241368;28;20014;-78
2023/03/18 16:20:44;;;;;;;48.70;25.10;;;;;;;;;;6244615;28;20502;-78
2023/03/18 16:23:45;;;;;;;38.40;18.77;;;;;;;;;;6242194;28;20038;-78
2023/03/18 16:26:45;;;;;;;26.97;13.93;;;;;;;;;;6245276;28;20048;-78
2023/03/18 16:29:47;;;;;;;21.00;11.93;;;;;;;;;;6241298;28;20028;-78
2023/03/18 16:32:47;;;;;;;29.20;14.98;;;;;;;;;;6228469;28;20025;-79
2023/03/18 16:35:51;;;;;;;22.53;14.43;;;;;;;;;;6242289;28;20104;-78
2023/03/18 16:38:52;;;;;;;25.88;16.73;;;;;;;;;;6237305;28;20049;-79
2023/03/18 16:41:52;;;;;;;29.37;18.10;;;;;;;;;;6243792;28;20434;-78
2023/03/18 16:44:53;;;;;;;38.23;21.67;;;;;;;;;;6238758;28;20357;-78
2023/03/18 16:47:55;;;;;;;42.07;23.17;;;;;;;;;;6243516;28;20049;-79
2023/03/18 16:50:56;;;;;;;41.70;23.60;;;;;;;;;;6243439;28;20029;-78
2023/03/18 16:53:56;;;;;;;51.50;28.63;;;;;;;;;;6243537;28;20499;-77
2023/03/18 16:56:58;;;;;;;52.37;30.20;;;;;;;;;;6239551;28;20140;-76
2023/03/18 17:00:04;;;;;;;49.60;25.90;;;;;;;;;;6237037;28;20391;-78
2023/03/18 17:03:04;;;;;;;45.10;25.30;;;;;;;;;;6239417;28;20025;-78
2023/03/18 17:06:05;;;;;;;43.57;24.90;;;;;;;;;;6242253;28;20025;-78
2023/03/18 17:09:05;;;;;;;64.43;35.20;;;;;;;;;;6240347;28;20018;-79
2023/03/18 17:12:06;;;;;;;59.75;32.88;;;;;;;;;;6242193;28;20743;-77
2023/03/18 17:15:08;;;;;;;57.70;34.40;;;;;;;;;;6240830;28;20040;-79
2023/03/18 17:18:11;;;;;;;42.80;22.63;;;;;;;;;;6239308;28;20021;-77
2023/03/18 17:21:14;;;;;;;42.90;21.60;;;;;;;;;;6239130;28;20111;-77
2023/03/18 17:24:15;;;;;;;47.53;23.17;;;;;;;;;;6242499;28;20482;-78
2023/03/18 17:27:24;;;;;;;29.17;14.10;;;;;;;;;;6241510;28;20017;-78
2023/03/18 17:30:28;;;;;;;23.80;13.93;;;;;;;;;;6234086;28;20025;-77
2023/03/18 17:33:30;;;;;;;34.92;15.48;;;;;;;;;;6236637;28;20107;-77
2023/03/18 17:36:30;;;;;;;31.30;15.38;;;;;;;;;;6241569;28;20026;-78
2023/03/18 17:39:30;;;;;;;35.43;16.57;;;;;;;;;;6239217;28;20506;-77
2023/03/18 17:42:31;;;;;;;211.53;89.67;;;;;;;;;;6232003;28;20025;-78
2023/03/18 17:45:33;;;;;;;203.55;88.47;;;;;;;;;;6246787;28;20571;-77
2023/03/18 17:48:34;;;;;;;95.35;42.15;;;;;;;;;;6245343;28;20029;-78
2023/03/18 17:51:35;;;;;;;80.20;36.17;;;;;;;;;;6240405;28;20032;-77